createdAt,value
2023-02-26T00:01:26.887Z,2.92
2023-02-26T00:03:56.224Z,2.84
2023-02-26T00:06:24.628Z,2.80
2023-02-26T00:08:51.531Z,2.64
2023-02-26T00:11:18.680Z,2.55
2023-02-26T00:13:45.907Z,2.95
2023-02-26T00:16:32.687Z,3.01
2023-02-26T00:19:01.821Z,2.94
2023-02-26T00:21:29.479Z,2.78
2023-02-26T00:23:56.365Z,2.52
2023-02-26T00:26:24.456Z,2.42
2023-02-26T00:28:51.462Z,2.39
2023-02-26T00:31:18.721Z,2.82
2023-02-26T00:33:49.169Z,2.55
2023-02-26T00:36:21.806Z,2.49
2023-02-26T00:39:01.646Z,2.79
2023-02-26T00:41:29.552Z,2.38
2023-02-26T00:43:56.838Z,2.04
2023-02-26T00:46:44.451Z,2.33
2023-02-26T00:49:25.014Z,1.87
2023-02-26T00:52:00.124Z,2.09
2023-02-26T00:54:31.277Z,1.73
2023-02-26T00:57:01.139Z,2.26
2023-02-26T00:59:28.254Z,2.23
2023-02-26T01:01:54.719Z,2.12
2023-02-26T01:04:23.097Z,1.98
2023-02-26T01:06:52.819Z,2.12
2023-02-26T01:09:25.782Z,2.06
2023-02-26T01:11:53.844Z,1.98
2023-02-26T01:14:20.842Z,2.47
2023-02-26T01:17:04.079Z,1.92
2023-02-26T01:19:38.089Z,2.13
2023-02-26T01:22:21.324Z,1.96
2023-02-26T01:24:50.053Z,2.08
2023-02-26T01:27:17.227Z,1.82
2023-02-26T01:29:44.358Z,2.10
2023-02-26T01:32:33.698Z,1.94
2023-02-26T01:35:05.976Z,2.04
2023-02-26T01:37:45.455Z,2.01
2023-02-26T01:40:27.598Z,1.25
2023-02-26T01:42:58.325Z,2.00
2023-02-26T01:45:32.428Z,2.03
2023-02-26T01:48:06.789Z,1.96
2023-02-26T01:50:35.986Z,2.19
2023-02-26T01:53:24.326Z,2.06
2023-02-26T01:56:08.943Z,1.91
2023-02-26T01:58:36.816Z,1.86
2023-02-26T02:01:04.329Z,2.08
2023-02-26T02:06:07.772Z,1.88
2023-02-26T02:08:35.840Z,1.87
2023-02-26T02:11:04.724Z,2.40
2023-02-26T02:13:54.845Z,2.05
2023-02-26T02:16:42.705Z,2.20
2023-02-26T02:19:44.431Z,2.42
2023-02-26T02:22:36.898Z,2.33
2023-02-26T02:25:12.151Z,2.42
2023-02-26T02:27:52.337Z,2.56
2023-02-26T02:30:52.296Z,2.72
2023-02-26T02:33:21.432Z,2.62
2023-02-26T02:35:56.326Z,2.60
2023-02-26T02:38:31.205Z,2.58
2023-02-26T02:41:06.397Z,2.55
2023-02-26T02:43:34.521Z,2.28
2023-02-26T02:46:05.770Z,2.10
2023-02-26T02:48:35.898Z,2.29
2023-02-26T02:51:06.707Z,1.78
2023-02-26T02:53:39.573Z,2.27
2023-02-26T02:56:11.215Z,2.20
2023-02-26T02:58:42.829Z,2.24
2023-02-26T03:01:12.527Z,2.10
2023-02-26T03:03:50.751Z,2.06
2023-02-26T03:06:17.936Z,2.37
2023-02-26T03:08:45.774Z,2.18
2023-02-26T03:11:12.539Z,2.30
2023-02-26T03:13:40.336Z,2.26
2023-02-26T03:16:10.041Z,2.17
2023-02-26T03:18:42.449Z,2.10
2023-02-26T03:21:13.788Z,2.28
2023-02-26T03:23:46.528Z,1.79
2023-02-26T03:26:17.856Z,1.77
2023-02-26T03:28:58.135Z,2.00
2023-02-26T03:32:23.426Z,1.50
2023-02-26T03:34:55.828Z,2.00
2023-02-26T03:37:41.834Z,1.84
2023-02-26T03:40:12.651Z,1.84
2023-02-26T03:42:49.513Z,1.90
2023-02-26T03:45:29.287Z,2.13
2023-02-26T03:47:56.541Z,1.94
2023-02-26T03:50:32.567Z,2.06
2023-02-26T03:53:01.151Z,2.62
2023-02-26T03:55:35.059Z,2.11
2023-02-26T03:58:01.951Z,2.05
2023-02-26T04:00:29.108Z,2.03
2023-02-26T04:03:02.200Z,1.97
2023-02-26T04:05:33.618Z,1.91
2023-02-26T04:08:00.220Z,1.70
2023-02-26T04:10:38.388Z,1.36
2023-02-26T04:13:04.890Z,1.67
2023-02-26T04:15:31.373Z,1.96
2023-02-26T04:17:57.860Z,1.66
2023-02-26T04:20:24.388Z,1.70
2023-02-26T04:22:51.064Z,2.04
2023-02-26T04:25:17.581Z,1.61
2023-02-26T04:27:44.040Z,1.01
2023-02-26T04:30:11.159Z,1.28
2023-02-26T04:32:37.696Z,0.65
2023-02-26T04:35:04.475Z,0.93
2023-02-26T04:37:31.086Z,0.58
2023-02-26T04:39:57.546Z,0.65
2023-02-26T04:42:24.077Z,0.68
2023-02-26T04:44:50.585Z,1.12
2023-02-26T04:47:17.057Z,0.77
2023-02-26T04:49:44.593Z,0.82
2023-02-26T04:52:11.096Z,0.74
2023-02-26T04:54:38.002Z,0.61
2023-02-26T04:57:04.556Z,0.42
2023-02-26T04:59:30.995Z,0.51
2023-02-26T05:01:57.548Z,0.59
2023-02-26T05:04:24.130Z,1.00
2023-02-26T05:06:50.761Z,1.08
2023-02-26T05:09:17.322Z,1.36
2023-02-26T05:11:43.796Z,0.83
2023-02-26T05:14:10.227Z,0.80
2023-02-26T05:16:36.688Z,0.92
2023-02-26T05:19:03.262Z,0.81
2023-02-26T05:21:29.721Z,0.94
2023-02-26T05:23:56.270Z,1.39
2023-02-26T05:26:23.247Z,1.13
2023-02-26T05:28:49.856Z,1.14
2023-02-26T05:31:16.411Z,1.10
2023-02-26T05:33:43.256Z,1.39
2023-02-26T05:36:10.145Z,1.31
2023-02-26T05:38:36.741Z,1.47
2023-02-26T05:41:03.352Z,1.63
2023-02-26T05:43:30.482Z,1.29
2023-02-26T05:45:57.105Z,0.75
2023-02-26T05:48:23.696Z,0.82
2023-02-26T05:50:50.562Z,0.90
2023-02-26T05:53:17.092Z,0.88
2023-02-26T05:55:43.576Z,1.24
2023-02-26T05:58:10.236Z,1.36
2023-02-26T06:00:36.739Z,0.85
2023-02-26T06:03:03.375Z,1.04
2023-02-26T06:05:29.832Z,0.89
2023-02-26T06:07:56.314Z,1.19
2023-02-26T06:10:22.767Z,0.89
2023-02-26T06:12:49.371Z,1.33
2023-02-26T06:15:15.849Z,1.22
2023-02-26T06:17:42.389Z,1.13
2023-02-26T06:20:10.015Z,1.46
2023-02-26T06:22:36.599Z,1.50
2023-02-26T06:25:03.451Z,1.78
2023-02-26T06:27:29.942Z,1.47
2023-02-26T06:29:56.383Z,1.57
2023-02-26T06:32:23.015Z,1.28
2023-02-26T06:34:49.534Z,1.12
2023-02-26T06:37:16.448Z,1.43
2023-02-26T06:39:43.109Z,1.27
2023-02-26T06:42:09.680Z,1.27
2023-02-26T06:44:36.215Z,1.38
2023-02-26T06:47:02.747Z,1.34
2023-02-26T06:49:29.219Z,1.34
2023-02-26T06:51:55.638Z,0.78
2023-02-26T06:54:22.158Z,0.98
2023-02-26T06:56:48.586Z,0.80
2023-02-26T06:59:15.471Z,1.10
2023-02-26T07:01:41.937Z,1.05
2023-02-26T07:04:08.509Z,1.17
2023-02-26T07:06:35.175Z,1.06
2023-02-26T07:09:01.785Z,1.32
2023-02-26T07:11:28.225Z,1.58
2023-02-26T07:13:55.228Z,1.22
2023-02-26T07:16:21.914Z,0.92
2023-02-26T07:18:48.430Z,1.28
2023-02-26T07:21:14.917Z,1.32
2023-02-26T07:23:41.420Z,1.14
2023-02-26T07:26:09.047Z,1.23
2023-02-26T07:28:35.841Z,1.79
2023-02-26T07:31:02.408Z,1.40
2023-02-26T07:33:28.985Z,1.42
2023-02-26T07:35:55.489Z,1.58
2023-02-26T07:38:22.002Z,1.47
2023-02-26T07:40:48.506Z,1.77
2023-02-26T07:43:14.965Z,1.70
2023-02-26T07:45:41.436Z,1.88
2023-02-26T07:48:08.051Z,2.27
2023-02-26T07:50:34.518Z,2.26
2023-02-26T07:53:01.051Z,1.72
2023-02-26T07:55:27.903Z,2.22
2023-02-26T07:57:54.448Z,2.41
2023-02-26T08:00:21.186Z,2.03
2023-02-26T08:02:47.919Z,1.96
2023-02-26T08:05:14.500Z,2.10
2023-02-26T08:07:41.027Z,2.02
2023-02-26T08:10:08.040Z,2.17
2023-02-26T08:12:34.541Z,2.32
2023-02-26T08:15:01.026Z,2.18
2023-02-26T08:17:27.635Z,2.08
2023-02-26T08:19:54.131Z,2.45
2023-02-26T08:22:21.244Z,2.51
2023-02-26T08:24:47.713Z,2.13
2023-02-26T08:27:14.151Z,2.48
2023-02-26T08:29:40.626Z,2.88
2023-02-26T08:32:07.257Z,2.76
2023-02-26T08:34:33.812Z,2.57
2023-02-26T08:37:00.292Z,2.82
2023-02-26T08:39:26.778Z,2.76
2023-02-26T08:41:53.239Z,3.00
2023-02-26T08:44:19.671Z,2.80
2023-02-26T08:46:46.172Z,2.76
2023-02-26T08:49:12.665Z,2.61
2023-02-26T08:51:39.137Z,3.17
2023-02-26T08:54:05.620Z,3.12
2023-02-26T08:56:32.283Z,2.81
2023-02-26T08:58:58.721Z,2.88
2023-02-26T09:01:25.557Z,3.23
2023-02-26T09:03:52.282Z,2.93
2023-02-26T09:06:18.787Z,2.84
2023-02-26T09:08:45.220Z,2.91
2023-02-26T09:11:12.182Z,3.29
2023-02-26T09:13:38.767Z,3.24
2023-02-26T09:16:05.741Z,3.11
2023-02-26T09:18:32.248Z,3.04
2023-02-26T09:20:58.696Z,3.35
2023-02-26T09:23:25.277Z,3.40
2023-02-26T09:25:56.848Z,3.32
2023-02-26T09:28:24.538Z,3.53
2023-02-26T09:30:53.036Z,3.92
2023-02-26T09:33:19.678Z,3.52
2023-02-26T09:35:51.660Z,4.09
2023-02-26T09:38:18.709Z,4.15
2023-02-26T09:40:51.199Z,4.52
2023-02-26T09:43:38.975Z,4.65
2023-02-26T09:46:22.218Z,4.19
2023-02-26T09:48:49.995Z,4.52
2023-02-26T09:51:20.578Z,5.50
2023-02-26T09:53:49.525Z,5.59
2023-02-26T09:56:18.105Z,5.08
2023-02-26T09:58:45.360Z,5.00
2023-02-26T10:01:32.552Z,4.91
2023-02-26T10:04:02.151Z,4.33
2023-02-26T10:06:29.811Z,4.32
2023-02-26T10:09:30.632Z,5.09
2023-02-26T10:12:20.950Z,5.13
2023-02-26T10:14:50.305Z,5.08
2023-02-26T10:17:22.910Z,5.13
2023-02-26T10:19:54.163Z,5.50
2023-02-26T10:22:37.968Z,5.01
2023-02-26T10:25:15.220Z,5.79
2023-02-26T10:28:39.555Z,5.27
2023-02-26T10:31:35.152Z,6.25
2023-02-26T10:34:10.968Z,5.98
2023-02-26T10:36:49.830Z,5.80
2023-02-26T10:39:40.454Z,6.53
2023-02-26T10:42:17.627Z,6.32
2023-02-26T10:45:15.080Z,5.78
2023-02-26T10:48:23.728Z,6.07
2023-02-26T10:50:57.963Z,5.63
2023-02-26T10:53:30.096Z,5.94
2023-02-26T10:56:40.324Z,6.39
2023-02-26T10:59:16.638Z,6.66
2023-02-26T11:01:46.391Z,5.81
2023-02-26T11:04:33.768Z,5.41
2023-02-26T11:07:08.040Z,6.66
2023-02-26T11:09:44.791Z,6.87
2023-02-26T11:12:15.910Z,6.41
2023-02-26T11:14:47.365Z,6.45
2023-02-26T11:17:31.522Z,5.70
2023-02-26T11:20:05.459Z,6.16
2023-02-26T11:22:39.229Z,6.82
2023-02-26T11:25:17.606Z,6.54
2023-02-26T11:27:50.967Z,5.94
2023-02-26T11:30:29.888Z,6.42
2023-02-26T11:33:02.432Z,6.61
2023-02-26T11:35:41.230Z,6.68
2023-02-26T11:38:17.224Z,6.89
2023-02-26T11:40:50.803Z,6.47
2023-02-26T11:43:27.015Z,6.80
2023-02-26T11:46:04.006Z,6.82
2023-02-26T11:48:48.428Z,6.59
2023-02-26T11:51:22.056Z,6.61
2023-02-26T11:54:09.084Z,6.59
2023-02-26T11:56:49.020Z,6.51
2023-02-26T11:59:39.060Z,6.18
2023-02-26T12:02:15.189Z,6.43
2023-02-26T12:04:54.163Z,6.12
2023-02-26T12:07:28.273Z,6.13
2023-02-26T12:09:57.466Z,6.23
2023-02-26T12:13:02.028Z,5.72
2023-02-26T12:15:53.341Z,5.91
2023-02-26T12:18:42.460Z,6.27
2023-02-26T12:21:20.836Z,6.92
2023-02-26T12:24:18.799Z,6.35
2023-02-26T12:26:56.955Z,6.30
2023-02-26T12:30:14.043Z,6.27
2023-02-26T12:33:23.626Z,6.01
2023-02-26T12:36:48.018Z,5.88
2023-02-26T12:39:29.942Z,5.95
2023-02-26T12:42:11.556Z,6.19
2023-02-26T12:45:13.318Z,6.66
2023-02-26T12:48:12.472Z,6.58
2023-02-26T12:50:56.857Z,6.47
2023-02-26T12:53:43.810Z,6.30
2023-02-26T12:56:37.490Z,6.69
2023-02-26T12:59:56.547Z,6.70
2023-02-26T13:03:04.560Z,7.29
2023-02-26T13:05:49.349Z,7.00
2023-02-26T13:08:19.798Z,6.83
2023-02-26T13:11:00.555Z,6.71
2023-02-26T13:13:40.375Z,6.46
2023-02-26T13:16:39.807Z,6.22
2023-02-26T13:19:13.938Z,6.41
2023-02-26T13:22:34.119Z,6.06
2023-02-26T13:25:19.314Z,6.30
2023-02-26T13:27:48.354Z,6.32
2023-02-26T13:30:47.402Z,6.68
2023-02-26T13:33:24.448Z,7.60
2023-02-26T13:36:09.519Z,6.89
2023-02-26T13:39:00.249Z,6.28
2023-02-26T13:42:00.380Z,6.23
2023-02-26T13:44:40.052Z,6.26
2023-02-26T13:47:31.671Z,6.24
2023-02-26T13:50:30.447Z,6.67
2023-02-26T13:53:05.935Z,6.56
2023-02-26T13:55:51.372Z,6.41
2023-02-26T13:58:30.354Z,6.97
2023-02-26T14:01:09.831Z,6.76
2023-02-26T14:03:49.517Z,6.41
2023-02-26T14:06:45.299Z,6.87
2023-02-26T14:09:33.083Z,6.58
2023-02-26T14:12:06.840Z,6.49
2023-02-26T14:15:11.839Z,6.66
2023-02-26T14:17:40.137Z,6.00
2023-02-26T14:20:33.220Z,6.37
2023-02-26T14:23:03.442Z,6.74
2023-02-26T14:26:00.123Z,6.19
2023-02-26T14:28:37.177Z,6.44
2023-02-26T14:31:11.533Z,6.07
2023-02-26T14:34:31.409Z,6.51
2023-02-26T14:37:10.427Z,5.98
2023-02-26T14:39:45.735Z,6.21
2023-02-26T14:42:32.486Z,6.29
2023-02-26T14:45:37.651Z,6.18
2023-02-26T14:48:07.306Z,5.82
2023-02-26T14:50:58.937Z,6.08
2023-02-26T14:53:44.295Z,6.26
2023-02-26T14:56:51.118Z,6.55
2023-02-26T14:59:32.824Z,6.49
2023-02-26T15:02:13.898Z,6.98
2023-02-26T15:05:13.635Z,6.59
2023-02-26T15:08:13.972Z,5.87
2023-02-26T15:11:06.114Z,5.96
2023-02-26T15:14:11.144Z,6.01
2023-02-26T15:16:52.953Z,6.47
2023-02-26T15:19:33.446Z,6.54
2023-02-26T15:22:30.562Z,6.03
2023-02-26T15:25:04.067Z,5.84
2023-02-26T15:27:43.241Z,6.22
2023-02-26T15:30:19.407Z,6.32
2023-02-26T15:32:49.956Z,6.26
2023-02-26T15:35:24.100Z,6.10
2023-02-26T15:38:03.987Z,6.05
2023-02-26T15:40:56.983Z,5.99
2023-02-26T15:43:34.225Z,6.17
2023-02-26T15:46:05.181Z,6.03
2023-02-26T15:48:40.802Z,5.94
2023-02-26T15:51:24.076Z,5.77
2023-02-26T15:53:58.836Z,5.91
2023-02-26T15:56:33.243Z,5.29
2023-02-26T15:59:17.626Z,5.45
2023-02-26T16:01:51.596Z,5.62
2023-02-26T16:04:24.592Z,6.29
2023-02-26T16:07:08.351Z,5.66
2023-02-26T16:09:44.485Z,5.78
2023-02-26T16:12:22.322Z,5.71
2023-02-26T16:15:09.619Z,5.55
2023-02-26T16:17:41.615Z,5.44
2023-02-26T16:20:31.112Z,5.42
2023-02-26T16:23:14.566Z,5.11
2023-02-26T16:26:05.804Z,5.01
2023-02-26T16:28:36.839Z,5.31
2023-02-26T16:31:10.586Z,5.38
2023-02-26T16:33:40.463Z,5.30
2023-02-26T16:36:16.614Z,5.41
2023-02-26T16:38:46.800Z,5.58
2023-02-26T16:41:20.368Z,5.14
2023-02-26T16:43:58.430Z,5.24
2023-02-26T16:46:57.411Z,5.16
2023-02-26T16:49:39.632Z,5.47
2023-02-26T16:52:23.542Z,5.83
2023-02-26T16:55:00.485Z,5.62
2023-02-26T16:57:54.247Z,5.31
2023-02-26T17:00:34.555Z,5.66
2023-02-26T17:03:13.464Z,5.43
2023-02-26T17:05:44.294Z,5.56
2023-02-26T17:08:13.900Z,5.53
2023-02-26T17:10:45.972Z,5.53
2023-02-26T17:13:28.835Z,5.54
2023-02-26T17:16:07.506Z,5.08
2023-02-26T17:18:34.493Z,5.34
2023-02-26T17:21:08.072Z,5.34
2023-02-26T17:23:46.684Z,5.31
2023-02-26T17:26:14.269Z,5.19
2023-02-26T17:28:44.757Z,5.30
2023-02-26T17:31:13.936Z,5.22
2023-02-26T17:33:43.578Z,5.01
2023-02-26T17:36:19.392Z,5.26
2023-02-26T17:38:47.882Z,5.02
2023-02-26T17:41:17.860Z,5.06
2023-02-26T17:43:44.620Z,5.01
2023-02-26T17:46:12.425Z,4.85
2023-02-26T17:48:39.597Z,4.80
2023-02-26T17:51:07.146Z,4.66
2023-02-26T17:53:40.815Z,4.65
2023-02-26T17:56:12.599Z,4.72
2023-02-26T17:58:39.582Z,4.70
2023-02-26T18:01:06.495Z,4.55
2023-02-26T18:03:33.095Z,4.64
2023-02-26T18:05:59.936Z,4.79
2023-02-26T18:08:32.593Z,4.67
2023-02-26T18:10:59.640Z,4.63
2023-02-26T18:13:27.124Z,4.52
2023-02-26T18:15:55.098Z,4.44
2023-02-26T18:18:22.524Z,4.23
2023-02-26T18:20:49.187Z,4.00
2023-02-26T18:23:16.782Z,3.81
2023-02-26T18:25:48.362Z,3.86
2023-02-26T18:28:18.093Z,3.85
2023-02-26T18:30:45.000Z,4.05
2023-02-26T18:33:12.671Z,3.96
2023-02-26T18:35:45.710Z,4.21
2023-02-26T18:38:13.904Z,4.20
2023-02-26T18:40:41.093Z,3.98
2023-02-26T18:43:10.387Z,4.01
2023-02-26T18:45:36.831Z,4.02
2023-02-26T18:48:03.677Z,3.72
2023-02-26T18:50:30.791Z,3.66
2023-02-26T18:52:57.277Z,3.34
2023-02-26T18:55:23.828Z,3.72
2023-02-26T18:57:50.276Z,3.91
2023-02-26T19:00:17.142Z,3.82
2023-02-26T19:02:44.916Z,3.80
2023-02-26T19:05:12.236Z,3.97
2023-02-26T19:07:38.838Z,3.91
2023-02-26T19:10:08.070Z,3.85
2023-02-26T19:12:35.138Z,3.67
2023-02-26T19:15:01.697Z,3.42
2023-02-26T19:17:28.177Z,3.08
2023-02-26T19:19:54.705Z,3.37
2023-02-26T19:22:21.152Z,3.27
2023-02-26T19:24:47.681Z,3.10
2023-02-26T19:27:15.102Z,3.32
2023-02-26T19:29:42.289Z,3.30
2023-02-26T19:32:09.263Z,3.19
2023-02-26T19:34:36.210Z,3.26
2023-02-26T19:37:02.685Z,3.48
2023-02-26T19:39:29.189Z,3.17
2023-02-26T19:41:56.089Z,3.00
2023-02-26T19:44:23.979Z,3.00
2023-02-26T19:46:50.882Z,2.63
2023-02-26T19:49:17.764Z,2.67
2023-02-26T19:51:44.316Z,2.73
2023-02-26T19:54:12.656Z,2.69
2023-02-26T19:56:40.443Z,2.83
2023-02-26T19:59:07.639Z,2.78
2023-02-26T20:01:34.467Z,2.65
2023-02-26T20:04:01.027Z,2.38
2023-02-26T20:06:27.774Z,2.66
2023-02-26T20:08:54.242Z,3.00
2023-02-26T20:11:20.753Z,2.68
2023-02-26T20:13:47.253Z,3.17
2023-02-26T20:16:14.016Z,2.73
2023-02-26T20:18:40.513Z,2.53
2023-02-26T20:21:09.720Z,2.40
2023-02-26T20:23:37.687Z,2.28
2023-02-26T20:26:09.728Z,2.55
2023-02-26T20:28:36.415Z,2.87
2023-02-26T20:31:03.542Z,2.70
2023-02-26T20:33:33.159Z,3.18
2023-02-26T20:36:00.311Z,2.94
2023-02-26T20:38:28.219Z,2.79
2023-02-26T20:40:55.301Z,2.51
2023-02-26T20:43:21.738Z,2.43
2023-02-26T20:45:49.157Z,2.62
2023-02-26T20:48:15.648Z,2.66
2023-02-26T20:50:42.150Z,2.49
2023-02-26T20:53:08.897Z,2.21
2023-02-26T20:55:35.703Z,2.48
2023-02-26T20:58:02.459Z,3.23
2023-02-26T21:00:29.371Z,3.07
2023-02-26T21:02:55.910Z,2.65
2023-02-26T21:05:22.792Z,2.43
2023-02-26T21:07:50.639Z,2.46
2023-02-26T21:10:18.419Z,2.53
2023-02-26T21:12:45.121Z,2.40
2023-02-26T21:15:12.442Z,2.29
2023-02-26T21:17:40.899Z,2.03
2023-02-26T21:20:09.101Z,2.17
2023-02-26T21:22:36.546Z,1.97
2023-02-26T21:25:04.164Z,2.49
2023-02-26T21:27:30.704Z,2.67
2023-02-26T21:29:57.167Z,2.76
2023-02-26T21:32:23.697Z,2.29
2023-02-26T21:34:50.186Z,2.40
2023-02-26T21:37:16.674Z,2.18
2023-02-26T21:39:43.171Z,2.49
2023-02-26T21:42:12.339Z,2.33
2023-02-26T21:44:38.798Z,2.76
2023-02-26T21:47:05.387Z,2.86
2023-02-26T21:49:32.581Z,3.21
2023-02-26T21:52:00.148Z,2.90
2023-02-26T21:54:26.850Z,2.63
2023-02-26T21:56:53.586Z,2.20
2023-02-26T21:59:20.498Z,2.13
2023-02-26T22:01:47.006Z,2.32
2023-02-26T22:04:13.455Z,2.10
2023-02-26T22:06:39.992Z,2.16
2023-02-26T22:09:06.673Z,2.21
2023-02-26T22:11:33.216Z,2.12
2023-02-26T22:13:59.698Z,2.23
2023-02-26T22:16:26.283Z,1.99
2023-02-26T22:18:52.731Z,2.06
2023-02-26T22:21:19.217Z,2.12
2023-02-26T22:23:45.697Z,2.11
2023-02-26T22:26:12.235Z,2.10
2023-02-26T22:28:38.733Z,2.12
2023-02-26T22:31:05.405Z,2.33
2023-02-26T22:33:31.985Z,2.14
2023-02-26T22:36:00.066Z,2.14
2023-02-26T22:38:26.887Z,2.10
2023-02-26T22:40:53.449Z,1.78
2023-02-26T22:43:20.362Z,1.69
2023-02-26T22:45:47.671Z,1.71
2023-02-26T22:48:14.453Z,1.80
2023-02-26T22:50:42.160Z,1.84
2023-02-26T22:53:08.595Z,1.68
2023-02-26T22:55:35.093Z,1.84
2023-02-26T22:58:01.568Z,1.88
2023-02-26T23:00:28.839Z,1.63
2023-02-26T23:02:55.792Z,1.77
2023-02-26T23:05:23.501Z,1.33
2023-02-26T23:07:53.984Z,1.74
2023-02-26T23:10:21.958Z,1.72
2023-02-26T23:12:48.838Z,2.01
2023-02-26T23:15:16.065Z,2.02
2023-02-26T23:17:42.867Z,2.24
2023-02-26T23:20:14.049Z,2.05
2023-02-26T23:22:43.947Z,1.84
2023-02-26T23:25:15.149Z,2.03
2023-02-26T23:27:42.129Z,1.97
2023-02-26T23:30:09.606Z,2.40
2023-02-26T23:32:36.952Z,2.55
2023-02-26T23:35:04.516Z,2.42
2023-02-26T23:37:31.359Z,2.40
2023-02-26T23:39:58.632Z,2.40
2023-02-26T23:42:25.152Z,2.38
2023-02-26T23:44:51.664Z,2.35
2023-02-26T23:47:18.859Z,2.23
2023-02-26T23:49:45.349Z,2.46
2023-02-26T23:52:11.876Z,2.38
2023-02-26T23:54:40.104Z,2.28
2023-02-26T23:57:07.443Z,2.23
2023-02-26T23:59:34.174Z,2.18
